Delray, Michigan
Current Conditions -  °F | °C
As of 12:00 AM on Friday 31 Oct 2014 (Local Time) from CYQG Reporting Station
Overcast Overcast  
Wind Chill: 42°   Ceiling: 4300
Heat Index: 46°   Visibility: 15mi
Dew Point: 37°   Wind: 8mph
Humidity: 71%   Direction: 230°SW
Pressure: 30.01"   Gusts: NA
Location:  42.2774°N, 83.1542°W
Report Text: CYQG 310400Z 23007KT 15SM OVC043 08/03 A3001 RMK SC8 SLP165
Loading
Personal Weather Stations






























Interactive Weather Map
Tropical Storm Tracking
New forecast layout! Learn more

10-Day Weather Forecast

Advertisements
Track Severe Weather on mobile